Grand Canyon Natl Park, Arizona
Current Conditions -  °F | °C
As of 5:54 PM on Monday 20 Oct 2014 (Local Time) from KGCN Reporting Station
Clear Clear  
Wind Chill: 57°   Ceiling: Unl
Heat Index: 57°   Visibility: 10mi
Dew Point: 39°   Wind: 6mph
Humidity: 51%   Direction: 70°ENE
Pressure: 30.13"   Gusts: NA
Location:  36.2°N, 112.07°W
Report Text: KGCN 210054Z 07005KT 10SM CLR 14/04 A3013 RMK AO2 SLP156 T01390039
Loading
Personal Weather Stations






























Interactive Weather Map New forecast layout! Learn more

10-Day Weather Forecast

Advertisements
Track Severe Weather on mobile